Nearby METAR Reports

 

KSJC - San Jose, California, USA
Distance from station: NE 14km
Updated: 21/01/2021 10:53
Few Clouds
Few Clouds
 Wind from NNW
Wind: NNW 15 km/h
Temperature: 19°C
Dew Point: -6°C
Humidity: 18%
Barometer: 1017.3 hPa
Clouds: Few Clouds
Visibility: 16 km
Cloud details: Few Clouds 1829 m
2021/01/20 23:53 KSJC 202353Z 33008KT 10SM FEW060 19/M06 A3004 RMK AO2 SLP172 T01941056 10206 20122 56013
KNUQ - Moffett Nas/Mtn, California, USA
Distance from station: N 14km
Updated: 21/01/2021 11:35
Clear
Clear
 Wind from NNW
Wind: NNW 11 km/h
Temperature: 16°C
Dew Point: -3°C
Humidity: 27%
Barometer: 1017.6 hPa
Clouds: Clear
Visibility: 16 km
2021/01/21 00:35 KNUQ 210035Z AUTO 34006KT 10SM CLR 16/M03 A3005 RMK AO2
 
KPAO - Palo Alto, California, USA
Distance from station: NNW 23km
Updated: 21/01/2021 10:47
Clear
Clear
 Wind from NNW
Wind: NNW 13 km/h
Temperature: 18°C
Dew Point: -4°C
Humidity: 22%
Barometer: 1017.6 hPa
Clouds: Clear
Visibility: 16 km
2021/01/20 23:47 KPAO 202347Z 33007KT 10SM SKC 18/M04 A3005
KRHV - San Jose/Reid, California, USA
Distance from station: ENE 19km
Updated: 21/01/2021 10:47
Clear
Clear
 Wind from NW
Wind: NW 11 km/h
Temperature: 19°C
Dew Point: -4°C
Humidity: 21%
Barometer: 1017.3 hPa
Clouds: Clear
Visibility: 16 km
2021/01/20 23:47 KRHV 202347Z 31006KT 10SM SKC 19/M04 A3004
 
KOAK - Oakland, California, USA
Distance from station: NNW 50km
Updated: 21/01/2021 10:53
Few Clouds
Few Clouds
 Wind from WNW
Wind: WNW 13 km/h
Temperature: 19°C
Dew Point: -2°C
Humidity: 24%
Barometer: 1017.9 hPa
Clouds: Few Clouds
Visibility: 16 km
Cloud details: Few Clouds 6096 m
2021/01/20 23:53 KOAK 202353Z 30007KT 10SM FEW200 19/M02 A3006 RMK AO2 SLP179 T01941017 10200 20150 56015
KSQL - San Carlos Airpo, California, USA
Distance from station: NW 34km
Updated: 21/01/2021 09:47
NOT Current
Clear
Clear
 Wind from N
Wind: N 11 km/h
Temperature: 18°C
Dew Point: -2°C
Humidity: 26%
Barometer: 1018.3 hPa
Clouds: Clear
Visibility: 16 km
2021/01/20 22:47 KSQL 202247Z 01006KT 10SM SKC 18/M02 A3007
 
KSFO - San Francisco, California, USA
Distance from station: NW 49km
Updated: 21/01/2021 10:56
Few Clouds
Few Clouds
 Wind from calm
Wind: Calm
Temperature: 18°C
Dew Point: -2°C
Humidity: 26%
Barometer: 1017.6 hPa
Clouds: Few Clouds
Visibility: 16 km
Cloud details: Few Clouds 6096 m
2021/01/20 23:56 KSFO 202356Z 00000KT 10SM FEW200 18/M02 A3005 RMK AO2 SLP175 T01831017 10194 20133 56013
KE16 - San Martin, California, USA
Distance from station: ESE 43km
Updated: 21/01/2021 11:35
Clear
Clear
 Wind from NW
Wind: NW 7 km/h
Temperature: 19°C
Dew Point: -7°C
Humidity: 17%
Barometer: 1017.9 hPa
Clouds: Clear
Visibility: 16 km
2021/01/21 00:35 KE16 210035Z AUTO 31004KT 10SM CLR 19/M07 A3006 RMK AO2 PWINO PNO
 
KWVI - Watsonville, California, USA
Distance from station: SSE 44km
Updated: 21/01/2021 10:53

 Wind from WSW
Wind: WSW 9 km/h
Temperature: 20°C
Dew Point: -1°C
Humidity: 24%
Barometer: 1016.9 hPa
Visibility: 16 km
2021/01/20 23:53 KWVI 202353Z AUTO 25005KT 10SM 20/M01 A3003 RMK AO2 SLP168 T02001006 10222 20128 $
KHAF - Half Moon Bay, California, USA
Distance from station: WNW 50km
Updated: 21/01/2021 11:35
Clear
Clear
 Wind from NNW
Wind: NNW 17 km/h
Temperature: 16°C
Dew Point: -2°C
Humidity: 29%
Barometer: 1017.9 hPa
Clouds: Clear
Visibility: 11 km
2021/01/21 00:35 KHAF 210035Z AUTO 33009KT 7SM CLR 16/M02 A3006 RMK AO2
 
KHWD - Hayward, California, USA
Distance from station: N 44km
Updated: 21/01/2021 10:54
Clear
Clear
 Wind from WNW
Wind: WNW 15 km/h
Temperature: 17°C
Dew Point: -1°C
Humidity: 30%
Barometer: 1017.6 hPa
Clouds: Clear
Visibility: 16 km
2021/01/20 23:54 KHWD 202354Z 29008KT 10SM CLR 17/M01 A3005 RMK AO2 SLP184 T01721006 10178 20139 56015
KLVK - Livermore, California, USA
Distance from station: NNE 51km
Updated: 21/01/2021 10:53
Clear
Clear
 Wind from ENE
Wind: ENE 13 km/h
Temperature: 19°C
Dew Point: -7°C
Humidity: 17%
Barometer: 1017.3 hPa
Clouds: Clear
Visibility: 16 km
2021/01/20 23:53 KLVK 202353Z 07007KT 10SM CLR 19/M07 A3004 RMK AO2 SLP173 T01891072 10200 20150 56013